Time;durP1;ratioP1;P1;durP2;ratioP2;P2;SDS_P1;SDS_P2;PMS_P1;PMS_P2;Temp;Humidity;BMP_temperature;BMP_pressure;BME280_temperature;BME280_humidity;BME280_pressure;Samples;Min_cycle;Max_cycle;Signal;HPM_P1;HPM_P2
2023/11/07 00:02:13;;;;;;;5.90;3.50;;;5.90;99.90;;;;;;5049222;28;20475;-60
2023/11/07 00:04:39;;;;;;;4.20;3.37;;;5.90;99.90;;;;;;5038768;28;20588;-60
2023/11/07 00:07:04;;;;;;;7.90;3.80;;;5.80;99.90;;;;;;5049946;28;20187;-60
2023/11/07 00:09:30;;;;;;;5.20;3.50;;;5.80;99.90;;;;;;5054810;28;20552;-60
2023/11/07 00:11:56;;;;;;;4.87;3.40;;;5.80;99.90;;;;;;5052384;28;20198;-59
2023/11/07 00:14:22;;;;;;;5.07;3.30;;;5.70;99.90;;;;;;5052085;28;20976;-60
2023/11/07 00:16:48;;;;;;;4.90;3.47;;;5.60;99.90;;;;;;5050386;28;20648;-59
2023/11/07 00:19:14;;;;;;;5.77;2.97;;;5.60;99.90;;;;;;5044583;28;20996;-60
2023/11/07 00:21:39;;;;;;;5.20;3.33;;;5.60;99.90;;;;;;5045711;28;20221;-60
2023/11/07 00:24:06;;;;;;;5.17;3.87;;;5.50;99.90;;;;;;5047793;28;20182;-60
2023/11/07 00:26:31;;;;;;;12.00;4.77;;;5.50;99.90;;;;;;5052568;28;20190;-60
2023/11/07 00:28:57;;;;;;;10.17;4.37;;;5.50;99.90;;;;;;5051170;28;20421;-60
2023/11/07 00:31:23;;;;;;;11.97;6.50;;;5.40;99.90;;;;;;5044716;28;20695;-58
2023/11/07 00:33:49;;;;;;;13.27;6.37;;;5.40;99.90;;;;;;5038313;28;20179;-59
2023/11/07 00:36:16;;;;;;;16.13;6.03;;;5.40;99.90;;;;;;5049721;28;20457;-59
2023/11/07 00:38:41;;;;;;;8.17;5.13;;;5.40;99.90;;;;;;5052385;28;20182;-60
2023/11/07 00:41:07;;;;;;;7.63;4.13;;;5.40;99.90;;;;;;5047213;28;20472;-59
2023/11/07 00:43:34;;;;;;;6.60;3.87;;;5.30;99.90;;;;;;5051537;28;20179;-59
2023/11/07 00:45:59;;;;;;;6.77;3.70;;;5.30;99.90;;;;;;5049234;28;20187;-59
2023/11/07 00:48:25;;;;;;;6.20;3.57;;;5.30;99.90;;;;;;5056609;28;20423;-58
2023/11/07 00:50:51;;;;;;;4.53;3.40;;;5.20;99.90;;;;;;5049130;28;20217;-59
2023/11/07 00:53:16;;;;;;;4.20;2.90;;;5.20;99.90;;;;;;5052502;28;20179;-59
2023/11/07 00:55:42;;;;;;;7.33;3.20;;;5.10;99.90;;;;;;5049081;28;20657;-59
2023/11/07 00:58:07;;;;;;;4.10;2.73;;;5.10;99.90;;;;;;5048939;28;20264;-59
2023/11/07 01:00:33;;;;;;;4.03;2.47;;;5.10;99.90;;;;;;5053170;28;20203;-59
2023/11/07 01:02:59;;;;;;;3.60;2.10;;;5.00;99.90;;;;;;5046238;28;20232;-59
2023/11/07 01:05:26;;;;;;;4.20;2.23;;;5.00;99.90;;;;;;5057569;28;20550;-58
2023/11/07 01:07:52;;;;;;;4.33;2.33;;;5.00;99.90;;;;;;5053034;28;20440;-60
2023/11/07 01:10:18;;;;;;;2.60;1.83;;;5.00;99.90;;;;;;5042629;28;20458;-59
2023/11/07 01:12:44;;;;;;;1.70;1.60;;;5.00;99.90;;;;;;5044908;28;20187;-59
2023/11/07 01:15:10;;;;;;;2.67;2.47;;;5.00;99.90;;;;;;5057512;28;20183;-59
2023/11/07 01:17:36;;;;;;;2.13;1.60;;;5.00;99.90;;;;;;5059321;28;20550;-59
2023/11/07 01:20:06;;;;;;;1.90;1.60;;;4.90;99.90;;;;;;5053034;28;20214;-59
2023/11/07 01:22:32;;;;;;;4.90;1.90;;;4.90;99.90;;;;;;5046992;28;20441;-59
2023/11/07 01:24:57;;;;;;;2.47;1.43;;;5.00;99.90;;;;;;5051263;28;21093;-59
2023/11/07 01:27:24;;;;;;;1.93;1.73;;;4.90;99.90;;;;;;5048195;28;20902;-59
2023/11/07 01:29:50;;;;;;;2.00;1.80;;;4.90;99.90;;;;;;5048915;28;20195;-58
2023/11/07 01:32:17;;;;;;;1.83;1.73;;;4.90;99.90;;;;;;5052780;28;20433;-59
2023/11/07 01:34:42;;;;;;;2.33;1.60;;;4.90;99.90;;;;;;5049605;28;20442;-59
2023/11/07 01:37:08;;;;;;;1.63;1.50;;;4.80;99.90;;;;;;5051639;28;21017;-59
2023/11/07 01:39:34;;;;;;;1.60;1.50;;;4.80;99.90;;;;;;5045926;28;20241;-59
2023/11/07 01:41:59;;;;;;;4.27;1.60;;;4.70;99.90;;;;;;5050337;28;20223;-59
2023/11/07 01:44:31;;;;;;;1.90;1.70;;;4.70;99.90;;;;;;5056507;28;20416;-59
2023/11/07 01:46:57;;;;;;;2.20;1.57;;;4.70;99.90;;;;;;5047226;28;20183;-59
2023/11/07 01:49:24;;;;;;;5.03;1.83;;;4.60;99.90;;;;;;5045721;28;20420;-59
2023/11/07 01:51:50;;;;;;;1.90;1.30;;;4.60;99.90;;;;;;5048868;28;20504;-59
2023/11/07 01:54:17;;;;;;;2.10;1.50;;;4.60;99.90;;;;;;5054894;28;20487;-59
2023/11/07 01:56:43;;;;;;;4.27;1.63;;;4.60;99.90;;;;;;5047958;28;20468;-59
2023/11/07 01:59:09;;;;;;;3.80;1.60;;;4.70;99.90;;;;;;5052627;28;20414;-59
2023/11/07 02:01:37;;;;;;;2.13;1.50;;;4.70;99.90;;;;;;5044882;28;20482;-58
2023/11/07 02:04:03;;;;;;;3.57;1.53;;;4.70;99.90;;;;;;5045762;28;20214;-59
2023/11/07 02:06:29;;;;;;;2.30;2.10;;;4.80;99.90;;;;;;5050461;28;20884;-58
2023/11/07 02:08:56;;;;;;;3.47;2.00;;;4.80;99.90;;;;;;5050983;28;20203;-58
2023/11/07 02:11:24;;;;;;;2.40;2.20;;;4.80;99.90;;;;;;5046113;28;20203;-59
2023/11/07 02:13:50;;;;;;;2.43;2.23;;;4.90;99.90;;;;;;5047257;28;20537;-59
2023/11/07 02:16:17;;;;;;;5.77;3.00;;;4.90;99.90;;;;;;5046140;28;20564;-59
2023/11/07 02:18:43;;;;;;;4.63;3.27;;;5.00;99.90;;;;;;5046298;28;20198;-59
2023/11/07 02:21:08;;;;;;;6.97;3.13;;;5.00;99.90;;;;;;5047051;28;20449;-59
2023/11/07 02:23:34;;;;;;;5.57;3.93;;;5.10;99.90;;;;;;5054093;28;20207;-59
2023/11/07 02:26:00;;;;;;;9.13;4.00;;;5.10;99.90;;;;;;5053414;28;20179;-59
2023/11/07 02:28:25;;;;;;;5.63;3.90;;;5.20;99.90;;;;;;5047547;28;20251;-59
2023/11/07 02:30:51;;;;;;;6.03;3.53;;;5.30;99.90;;;;;;5046366;28;20699;-59
2023/11/07 02:33:19;;;;;;;5.90;4.30;;;5.30;99.90;;;;;;5048842;28;20183;-59
2023/11/07 02:35:45;;;;;;;5.77;4.33;;;5.40;99.90;;;;;;5052571;28;20167;-59
2023/11/07 02:38:12;;;;;;;5.00;3.87;;;5.40;99.90;;;;;;5052119;28;20428;-59
2023/11/07 02:40:40;;;;;;;3.90;3.33;;;5.40;99.90;;;;;;5054785;28;20425;-59
2023/11/07 02:43:06;;;;;;;4.23;3.43;;;5.50;99.90;;;;;;5055602;28;20857;-59
2023/11/07 02:45:35;;;;;;;2.67;2.47;;;5.40;99.90;;;;;;5047794;28;20472;-60
2023/11/07 02:48:00;;;;;;;3.97;2.30;;;5.40;99.90;;;;;;5044495;28;20903;-59
2023/11/07 02:50:27;;;;;;;3.80;2.27;;;5.30;99.90;;;;;;5049755;28;20549;-58
2023/11/07 02:52:53;;;;;;;2.37;2.17;;;5.30;99.90;;;;;;5051309;28;20178;-59
2023/11/07 02:55:18;;;;;;;2.47;2.20;;;5.20;99.90;;;;;;5047304;28;20505;-59
2023/11/07 02:57:44;;;;;;;2.90;2.60;;;5.20;99.90;;;;;;5044705;28;20199;-60
2023/11/07 03:00:12;;;;;;;7.37;3.10;;;5.20;99.90;;;;;;5043015;28;20278;-59
2023/11/07 03:02:39;;;;;;;3.37;2.80;;;5.20;99.90;;;;;;5048469;28;20171;-59
2023/11/07 03:05:06;;;;;;;3.80;2.70;;;5.20;99.90;;;;;;5051732;28;20448;-60
2023/11/07 03:07:33;;;;;;;3.10;2.43;;;5.20;99.90;;;;;;5036030;28;20478;-59
2023/11/07 03:10:00;;;;;;;3.97;3.27;;;5.20;99.90;;;;;;5052393;28;20453;-58
2023/11/07 03:12:28;;;;;;;3.40;3.10;;;5.20;99.90;;;;;;5045486;28;20432;-59
2023/11/07 03:14:54;;;;;;;5.20;3.77;;;5.30;99.90;;;;;;5051324;28;20410;-59
2023/11/07 03:17:19;;;;;;;6.20;3.10;;;5.30;99.90;;;;;;5057107;28;20473;-59
2023/11/07 03:19:49;;;;;;;5.33;3.70;;;5.30;99.90;;;;;;5044225;28;20456;-58
2023/11/07 03:22:15;;;;;;;3.97;3.50;;;5.30;99.90;;;;;;5044698;28;20168;-59
2023/11/07 03:24:41;;;;;;;7.53;4.60;;;5.30;99.90;;;;;;5047187;28;20503;-60
2023/11/07 03:27:07;;;;;;;4.80;3.83;;;5.40;99.90;;;;;;5042383;28;20430;-59
2023/11/07 03:29:32;;;;;;;7.50;3.77;;;5.40;99.90;;;;;;5046522;28;20246;-61
2023/11/07 03:31:58;;;;;;;6.03;4.00;;;5.40;99.90;;;;;;5041475;28;20206;-60
2023/11/07 03:34:24;;;;;;;4.37;3.90;;;5.40;99.90;;;;;;5038741;28;20179;-59
2023/11/07 03:36:50;;;;;;;5.77;4.10;;;5.40;99.90;;;;;;5040687;28;20464;-59
2023/11/07 03:39:16;;;;;;;5.10;4.17;;;5.40;99.90;;;;;;5056428;28;20413;-59
2023/11/07 03:41:41;;;;;;;6.37;4.73;;;5.30;99.90;;;;;;5050421;28;20198;-59
2023/11/07 03:44:07;;;;;;;6.27;4.50;;;5.30;99.90;;;;;;5050918;28;20167;-60
2023/11/07 03:46:33;;;;;;;5.70;4.70;;;5.20;99.90;;;;;;5038110;28;20190;-59
2023/11/07 03:48:58;;;;;;;12.13;4.50;;;5.20;99.90;;;;;;5043062;28;20174;-59
2023/11/07 03:51:24;;;;;;;12.10;5.20;;;5.20;99.90;;;;;;5051738;28;20209;-59
2023/11/07 03:53:49;;;;;;;8.90;5.00;;;5.20;99.90;;;;;;5051580;28;20313;-59
2023/11/07 03:56:16;;;;;;;7.80;4.73;;;5.20;99.90;;;;;;5049556;28;20203;-60
2023/11/07 03:58:41;;;;;;;7.33;4.87;;;5.10;99.90;;;;;;5047984;28;20548;-60
2023/11/07 04:01:07;;;;;;;7.83;5.37;;;5.10;99.90;;;;;;5041020;28;20926;-60
2023/11/07 04:03:32;;;;;;;10.60;6.57;;;5.10;99.90;;;;;;5041809;28;20632;-59
2023/11/07 04:05:58;;;;;;;14.17;8.40;;;5.10;99.90;;;;;;5047214;28;20658;-60
2023/11/07 04:08:24;;;;;;;7.77;5.93;;;5.10;99.90;;;;;;5048674;28;20180;-59
2023/11/07 04:10:50;;;;;;;10.20;6.20;;;5.00;99.90;;;;;;5047641;28;20694;-59
2023/11/07 04:13:15;;;;;;;8.47;6.03;;;5.00;99.90;;;;;;5046574;28;20944;-60
2023/11/07 04:15:42;;;;;;;7.60;4.90;;;5.00;99.90;;;;;;5047597;28;20660;-60
2023/11/07 04:18:10;;;;;;;6.13;4.20;;;5.00;99.90;;;;;;5043410;28;20206;-60
2023/11/07 04:20:36;;;;;;;6.37;4.10;;;5.00;99.90;;;;;;5047445;28;20436;-60
2023/11/07 04:23:02;;;;;;;7.33;4.13;;;4.90;99.90;;;;;;5051145;28;20418;-60
2023/11/07 04:25:28;;;;;;;4.93;3.67;;;4.90;99.90;;;;;;5038696;28;20916;-59
2023/11/07 04:27:54;;;;;;;6.53;4.77;;;4.90;99.90;;;;;;5048669;28;20421;-59
2023/11/07 04:30:22;;;;;;;6.37;4.40;;;4.90;99.90;;;;;;5051222;28;20701;-60
2023/11/07 04:32:47;;;;;;;3.87;3.50;;;4.90;99.90;;;;;;5051561;28;20190;-59
2023/11/07 04:35:15;;;;;;;5.30;4.23;;;4.90;99.90;;;;;;5047359;28;20410;-59
2023/11/07 04:37:42;;;;;;;5.93;4.33;;;4.90;99.90;;;;;;5045742;28;20733;-59
2023/11/07 04:40:08;;;;;;;8.03;5.40;;;4.90;99.90;;;;;;5046489;28;20521;-58
2023/11/07 04:42:34;;;;;;;6.50;4.80;;;4.90;99.90;;;;;;5049234;28;20487;-59
2023/11/07 04:44:59;;;;;;;8.43;4.83;;;4.80;99.90;;;;;;5045861;28;20470;-59
2023/11/07 04:47:25;;;;;;;11.93;8.13;;;4.80;99.90;;;;;;5056383;28;20224;-59
2023/11/07 04:49:51;;;;;;;9.60;7.17;;;4.80;99.90;;;;;;5043212;28;20266;-58
2023/11/07 04:52:16;;;;;;;10.87;6.97;;;4.70;99.90;;;;;;5049824;28;20175;-59
2023/11/07 04:54:42;;;;;;;8.13;4.70;;;4.70;99.90;;;;;;5041821;28;20267;-58
2023/11/07 04:57:08;;;;;;;4.70;3.20;;;4.70;99.90;;;;;;5045189;28;20202;-58
2023/11/07 04:59:34;;;;;;;6.23;4.03;;;4.70;99.90;;;;;;5043267;28;20171;-57
2023/11/07 05:02:01;;;;;;;3.77;3.13;;;4.70;99.90;;;;;;5042516;28;20461;-56
2023/11/07 05:04:27;;;;;;;6.33;3.67;;;4.70;99.90;;;;;;5042063;28;20186;-58
2023/11/07 05:06:54;;;;;;;4.20;3.33;;;4.70;99.90;;;;;;5048735;28;20729;-58
2023/11/07 05:09:19;;;;;;;5.10;3.70;;;4.70;99.90;;;;;;5045956;28;20479;-58
2023/11/07 05:11:45;;;;;;;4.40;3.70;;;4.60;99.90;;;;;;5042130;28;20813;-60
2023/11/07 05:14:10;;;;;;;4.77;3.90;;;4.60;99.90;;;;;;5048266;28;20187;-60
2023/11/07 05:16:41;;;;;;;5.70;4.13;;;4.50;99.90;;;;;;5044661;28;20199;-60
2023/11/07 05:19:08;;;;;;;6.60;4.13;;;4.50;99.90;;;;;;5040564;28;20175;-58
2023/11/07 05:21:33;;;;;;;7.43;3.87;;;4.50;99.90;;;;;;5029077;28;20453;-60
2023/11/07 05:23:59;;;;;;;4.80;4.10;;;4.40;99.90;;;;;;5032512;28;20804;-61
2023/11/07 05:26:25;;;;;;;5.37;4.23;;;4.40;99.90;;;;;;5040266;28;21042;-60
2023/11/07 05:28:50;;;;;;;5.90;4.33;;;4.40;99.90;;;;;;5065527;28;20176;-60
2023/11/07 05:31:16;;;;;;;12.13;4.30;;;4.40;99.90;;;;;;5049914;28;20204;-61
2023/11/07 05:33:46;;;;;;;6.67;4.77;;;4.30;99.90;;;;;;5044330;28;20190;-60
2023/11/07 05:36:15;;;;;;;5.17;4.67;;;4.30;99.90;;;;;;5047557;28;20532;-60
2023/11/07 05:38:44;;;;;;;7.90;5.00;;;4.20;99.90;;;;;;5044480;28;20791;-60
2023/11/07 05:41:11;;;;;;;6.77;4.77;;;4.20;99.90;;;;;;5042992;28;21987;-60
2023/11/07 05:43:37;;;;;;;5.20;3.40;;;4.10;99.90;;;;;;5041919;28;20438;-60
2023/11/07 05:46:04;;;;;;;5.30;4.30;;;4.10;99.90;;;;;;5037813;28;20818;-61
2023/11/07 05:48:30;;;;;;;4.77;3.90;;;4.00;99.90;;;;;;5039248;28;20971;-60
2023/11/07 05:50:55;;;;;;;6.57;3.80;;;4.00;99.90;;;;;;5047006;28;20523;-59
2023/11/07 05:53:21;;;;;;;3.83;3.43;;;4.00;99.90;;;;;;5054457;28;20176;-60
2023/11/07 05:55:46;;;;;;;5.27;3.43;;;4.00;99.90;;;;;;5049074;28;20225;-60
2023/11/07 05:58:12;;;;;;;4.63;3.70;;;4.00;99.90;;;;;;5045119;28;20203;-60
2023/11/07 06:00:39;;;;;;;6.00;4.60;;;4.00;99.90;;;;;;5045769;28;20199;-60
2023/11/07 06:03:05;;;;;;;6.57;4.10;;;3.90;99.90;;;;;;5045701;28;20167;-61
2023/11/07 06:05:30;;;;;;;6.00;4.50;;;3.90;99.90;;;;;;5053429;28;20432;-59
2023/11/07 06:07:57;;;;;;;6.57;5.30;;;3.90;99.90;;;;;;5050355;28;20168;-60
2023/11/07 06:10:24;;;;;;;8.53;5.77;;;3.90;99.90;;;;;;5046942;28;20198;-60
2023/11/07 06:12:50;;;;;;;13.50;9.70;;;4.00;99.90;;;;;;5045295;28;20433;-59
2023/11/07 06:15:15;;;;;;;11.77;7.13;;;4.00;99.90;;;;;;5051863;28;20448;-60
2023/11/07 06:17:41;;;;;;;11.23;8.13;;;4.10;99.90;;;;;;5044870;28;20206;-60
2023/11/07 06:20:08;;;;;;;13.03;8.90;;;4.00;99.90;;;;;;5043710;28;20574;-60
2023/11/07 06:22:34;;;;;;;13.30;8.47;;;4.10;99.90;;;;;;5051519;28;20190;-60
2023/11/07 06:25:00;;;;;;;12.60;7.47;;;4.10;99.90;;;;;;5047734;28;20642;-60
2023/11/07 06:27:26;;;;;;;11.70;8.00;;;4.10;99.90;;;;;;5045553;28;20527;-60
2023/11/07 06:29:52;;;;;;;12.60;7.90;;;4.10;99.90;;;;;;5035607;28;20825;-61
2023/11/07 06:32:18;;;;;;;14.10;8.60;;;4.10;99.90;;;;;;5045239;28;20441;-60
2023/11/07 06:34:43;;;;;;;18.80;7.43;;;4.10;99.90;;;;;;5048253;28;20189;-59
2023/11/07 06:37:12;;;;;;;13.50;6.77;;;4.10;99.90;;;;;;5043234;28;20194;-60
2023/11/07 06:39:38;;;;;;;10.20;6.17;;;4.10;99.90;;;;;;5036398;28;20209;-60
2023/11/07 06:42:04;;;;;;;10.23;6.70;;;4.10;99.90;;;;;;5038620;28;21202;-61
2023/11/07 06:44:30;;;;;;;9.70;6.23;;;4.10;99.90;;;;;;5039250;28;20171;-60
2023/11/07 06:46:55;;;;;;;9.90;5.93;;;4.10;99.90;;;;;;5046221;28;20812;-60
2023/11/07 06:49:21;;;;;;;12.40;6.47;;;4.10;99.90;;;;;;5044460;28;20300;-60
2023/11/07 06:51:47;;;;;;;11.03;7.13;;;4.10;99.90;;;;;;5041240;28;20198;-60
2023/11/07 06:54:13;;;;;;;13.20;6.57;;;4.10;99.90;;;;;;5040365;28;20798;-59
2023/11/07 06:56:38;;;;;;;8.00;5.30;;;4.10;99.90;;;;;;5044917;28;20457;-61
2023/11/07 06:59:04;;;;;;;11.50;6.97;;;4.10;99.90;;;;;;5043606;28;20183;-60
2023/11/07 07:01:30;;;;;;;7.63;6.20;;;4.20;99.90;;;;;;5038544;28;20234;-60
2023/11/07 07:03:55;;;;;;;12.40;7.33;;;4.20;99.90;;;;;;5044614;28;20198;-60
2023/11/07 07:06:23;;;;;;;10.90;7.60;;;4.20;99.90;;;;;;5040574;28;20288;-60
2023/11/07 07:08:49;;;;;;;8.10;6.80;;;4.30;99.90;;;;;;5043116;28;20721;-61
2023/11/07 07:11:15;;;;;;;7.13;6.00;;;4.30;99.90;;;;;;5044036;28;20479;-60
2023/11/07 07:13:41;;;;;;;8.13;6.17;;;4.30;99.90;;;;;;5043722;28;20444;-60
2023/11/07 07:16:08;;;;;;;6.10;5.40;;;4.30;99.90;;;;;;5049363;28;20178;-60
2023/11/07 07:18:34;;;;;;;6.90;5.10;;;4.30;99.90;;;;;;5047142;28;20808;-60
2023/11/07 07:21:00;;;;;;;9.87;6.00;;;4.30;99.90;;;;;;5042082;28;21172;-61
2023/11/07 07:23:25;;;;;;;8.63;5.60;;;4.30;99.90;;;;;;5042409;28;20413;-60
2023/11/07 07:25:53;;;;;;;19.57;7.57;;;4.40;99.90;;;;;;5039478;28;20174;-60
2023/11/07 07:28:20;;;;;;;13.70;7.73;;;4.40;99.90;;;;;;5051518;28;20178;-60
2023/11/07 07:30:47;;;;;;;11.93;7.47;;;4.50;99.90;;;;;;5040012;28;20996;-60
2023/11/07 07:33:15;;;;;;;23.33;8.73;;;4.60;99.90;;;;;;5043478;28;20419;-60
2023/11/07 07:35:40;;;;;;;14.93;8.53;;;4.70;99.90;;;;;;5042632;28;20862;-61
2023/11/07 07:38:08;;;;;;;18.33;9.40;;;4.80;99.90;;;;;;5041338;28;20594;-60
2023/11/07 07:40:34;;;;;;;17.57;8.83;;;4.90;99.90;;;;;;5038684;28;20199;-60
2023/11/07 07:43:08;;;;;;;13.93;7.90;;;5.00;99.90;;;;;;5041207;28;20415;-60
2023/11/07 07:45:34;;;;;;;8.00;5.37;;;5.00;99.90;;;;;;5047916;28;20179;-60
2023/11/07 07:48:02;;;;;;;12.37;6.43;;;5.10;99.90;;;;;;5045547;28;21006;-60
2023/11/07 07:50:30;;;;;;;6.83;4.80;;;5.10;99.90;;;;;;5036434;28;20433;-60
2023/11/07 07:52:56;;;;;;;7.50;5.07;;;5.20;99.90;;;;;;5041974;28;20421;-59
2023/11/07 07:55:22;;;;;;;8.40;4.67;;;5.30;99.90;;;;;;5043387;28;20432;-60
2023/11/07 07:57:47;;;;;;;7.67;4.70;;;5.30;99.90;;;;;;5047698;28;20959;-60
2023/11/07 08:00:14;;;;;;;8.03;4.20;;;5.30;99.90;;;;;;5036782;28;20206;-60
2023/11/07 08:02:46;;;;;;;7.87;4.17;;;5.40;99.90;;;;;;5044478;28;20274;-60
2023/11/07 08:05:16;;;;;;;4.70;3.87;;;5.50;99.90;;;;;;5049099;28;20418;-60
2023/11/07 08:07:43;;;;;;;5.63;3.53;;;5.50;99.90;;;;;;5055630;28;21001;-60
2023/11/07 08:10:16;;;;;;;6.00;3.73;;;5.60;99.90;;;;;;5038892;28;21020;-60
2023/11/07 08:12:43;;;;;;;5.90;3.70;;;5.70;99.90;;;;;;5044072;28;20406;-60
2023/11/07 08:15:12;;;;;;;4.03;3.20;;;5.80;99.90;;;;;;5042783;28;20924;-60
2023/11/07 08:17:38;;;;;;;5.17;3.70;;;5.90;99.90;;;;;;5041812;28;21019;-61
2023/11/07 08:20:14;;;;;;;4.53;3.30;;;5.90;99.90;;;;;;5043221;28;20472;-59
2023/11/07 08:22:43;;;;;;;5.60;3.37;;;6.00;99.90;;;;;;5047570;28;20803;-60
2023/11/07 08:25:10;;;;;;;4.63;2.90;;;6.00;99.90;;;;;;5048148;28;20841;-60
2023/11/07 08:27:41;;;;;;;4.47;2.80;;;6.10;99.90;;;;;;5044245;28;20508;-60
2023/11/07 08:30:15;;;;;;;4.43;3.30;;;6.10;99.90;;;;;;5046665;28;20413;-60
2023/11/07 08:32:44;;;;;;;3.93;3.53;;;6.20;99.90;;;;;;5040276;28;20469;-60
2023/11/07 08:35:11;;;;;;;3.33;2.80;;;6.30;99.90;;;;;;5044987;28;20429;-60
2023/11/07 08:37:40;;;;;;;3.43;2.47;;;6.40;99.90;;;;;;5043831;28;20833;-60
2023/11/07 08:40:08;;;;;;;3.30;3.00;;;6.40;99.90;;;;;;5048022;28;20439;-60
2023/11/07 08:42:34;;;;;;;2.93;2.37;;;6.50;99.90;;;;;;5041493;28;21762;-60
2023/11/07 08:44:59;;;;;;;4.03;2.20;;;6.40;99.90;;;;;;5039408;28;20919;-60
2023/11/07 08:47:26;;;;;;;2.30;2.10;;;6.50;99.90;;;;;;5046155;28;20828;-60
2023/11/07 08:49:57;;;;;;;2.87;2.60;;;6.50;99.90;;;;;;5040729;28;20194;-61
2023/11/07 08:52:23;;;;;;;3.13;2.67;;;6.60;99.90;;;;;;5048034;28;20523;-60
2023/11/07 08:54:49;;;;;;;4.07;2.80;;;6.60;99.90;;;;;;5041266;28;20936;-60
2023/11/07 08:57:14;;;;;;;3.13;2.37;;;6.70;99.90;;;;;;5048896;28;20464;-60
2023/11/07 08:59:44;;;;;;;4.07;2.50;;;6.60;99.90;;;;;;5049330;28;20265;-60
2023/11/07 09:02:11;;;;;;;2.30;2.07;;;6.70;99.90;;;;;;5047733;28;20195;-60
2023/11/07 09:04:37;;;;;;;6.80;2.60;;;6.70;99.90;;;;;;5045197;28;20482;-60
2023/11/07 09:07:03;;;;;;;2.70;2.50;;;6.70;99.90;;;;;;5053073;28;20934;-61
2023/11/07 09:09:30;;;;;;;3.90;2.80;;;6.70;99.90;;;;;;5052384;28;20438;-60
2023/11/07 09:11:56;;;;;;;5.17;2.53;;;6.70;99.90;;;;;;5048827;28;20445;-60
2023/11/07 09:14:21;;;;;;;4.37;2.67;;;6.80;99.90;;;;;;5047553;28;20453;-60
2023/11/07 09:16:48;;;;;;;6.03;2.50;;;6.90;99.90;;;;;;5048305;28;20333;-59
2023/11/07 09:19:14;;;;;;;4.30;3.00;;;7.10;99.90;;;;;;5051043;28;20211;-60
2023/11/07 09:21:40;;;;;;;5.03;2.93;;;7.10;99.90;;;;;;5053058;28;20468;-60
2023/11/07 09:24:06;;;;;;;4.00;2.60;;;7.10;99.90;;;;;;5053803;28;20417;-60
2023/11/07 09:26:31;;;;;;;9.27;3.23;;;7.10;99.90;;;;;;5045968;28;21005;-59
2023/11/07 09:28:58;;;;;;;3.40;2.57;;;7.10;99.90;;;;;;5041170;28;20203;-60
2023/11/07 09:31:24;;;;;;;3.60;2.80;;;7.10;99.90;;;;;;5053006;28;20352;-60
2023/11/07 09:33:50;;;;;;;3.60;2.67;;;7.10;99.90;;;;;;5055882;28;20451;-60
2023/11/07 09:36:16;;;;;;;4.47;2.50;;;7.10;99.90;;;;;;5048141;28;20202;-60
2023/11/07 09:38:42;;;;;;;4.40;2.43;;;7.10;99.90;;;;;;5047066;28;20974;-60
2023/11/07 09:41:08;;;;;;;3.70;2.50;;;7.20;99.90;;;;;;5044533;28;20195;-59
2023/11/07 09:43:34;;;;;;;3.63;2.73;;;7.20;99.90;;;;;;5038684;28;20805;-60
2023/11/07 09:46:01;;;;;;;3.27;2.60;;;7.30;99.90;;;;;;5042442;28;20427;-60
2023/11/07 09:48:30;;;;;;;3.00;2.70;;;7.30;99.90;;;;;;5041087;28;20221;-60
2023/11/07 09:50:57;;;;;;;3.70;2.40;;;7.40;99.90;;;;;;5044864;28;20529;-59
2023/11/07 09:53:24;;;;;;;4.23;2.30;;;7.40;99.90;;;;;;5043233;28;20508;-60
2023/11/07 09:55:52;;;;;;;2.93;2.17;;;7.40;99.90;;;;;;5044723;28;20498;-60
2023/11/07 09:58:29;;;;;;;1.80;1.70;;;7.40;99.90;;;;;;5043533;28;20460;-60
2023/11/07 10:00:58;;;;;;;3.10;1.90;;;7.50;99.90;;;;;;5047867;28;20801;-60
2023/11/07 10:03:24;;;;;;;4.73;2.33;;;7.50;99.90;;;;;;5041938;28;20431;-60
2023/11/07 10:05:51;;;;;;;3.30;2.30;;;7.70;99.90;;;;;;5043704;28;20432;-60
2023/11/07 10:08:21;;;;;;;3.17;2.17;;;7.90;99.90;;;;;;5041800;28;20418;-60
2023/11/07 10:11:12;;;;;;;3.33;2.10;;;8.10;99.90;;;;;;5041846;28;21129;-60
2023/11/07 10:13:57;;;;;;;9.20;2.17;;;8.30;99.90;;;;;;5045770;28;20415;-60
2023/11/07 10:16:33;;;;;;;2.20;2.00;;;8.40;99.90;;;;;;5063429;28;20471;-60
2023/11/07 10:19:00;;;;;;;4.63;1.83;;;8.60;99.90;;;;;;5054151;28;20417;-60
2023/11/07 10:21:33;;;;;;;4.93;2.40;;;8.60;99.90;;;;;;5043179;28;20448;-60
2023/11/07 10:23:59;;;;;;;4.03;1.80;;;8.70;99.90;;;;;;5045548;28;20422;-60
2023/11/07 10:26:25;;;;;;;2.13;1.70;;;8.70;99.90;;;;;;5044556;28;20424;-60
2023/11/07 10:29:13;;;;;;;2.17;1.93;;;8.70;99.90;;;;;;5037697;28;20429;-60
2023/11/07 10:31:43;;;;;;;1.57;1.47;;;8.70;99.90;;;;;;5036047;28;20219;-60
2023/11/07 10:34:19;;;;;;;3.20;1.83;;;8.80;99.90;;;;;;5045412;28;20434;-60
2023/11/07 10:36:45;;;;;;;3.77;1.70;;;8.80;99.90;;;;;;5041142;28;20445;-60
2023/11/07 10:39:17;;;;;;;1.90;1.80;;;8.90;99.90;;;;;;5045804;28;20418;-60
2023/11/07 10:41:44;;;;;;;1.33;1.20;;;9.00;99.90;;;;;;5040223;28;20191;-60
2023/11/07 10:44:39;;;;;;;2.37;1.60;;;8.90;99.90;;;;;;5045221;28;20414;-60
2023/11/07 10:47:05;;;;;;;1.87;1.60;;;8.90;99.90;;;;;;5038887;28;20908;-60
2023/11/07 10:49:31;;;;;;;2.87;2.00;;;8.90;99.90;;;;;;5056908;28;20429;-60
2023/11/07 10:51:59;;;;;;;1.80;1.70;;;8.80;99.90;;;;;;5045748;28;20207;-60
2023/11/07 10:54:30;;;;;;;2.00;1.80;;;8.70;99.90;;;;;;5041375;28;20803;-60
2023/11/07 10:57:01;;;;;;;3.40;1.83;;;8.70;99.90;;;;;;5040245;28;21047;-60
2023/11/07 10:59:30;;;;;;;2.60;2.03;;;8.70;99.90;;;;;;5045216;28;20635;-57
2023/11/07 11:02:01;;;;;;;11.77;2.37;;;8.60;99.90;;;;;;5045789;28;20449;-60
2023/11/07 11:04:33;;;;;;;4.10;2.10;;;8.60;99.90;;;;;;5043374;28;20533;-60
2023/11/07 11:07:03;;;;;;;3.40;2.20;;;8.60;99.90;;;;;;5039477;28;20442;-56
2023/11/07 11:09:32;;;;;;;5.00;3.00;;;8.50;99.90;;;;;;5042972;28;20409;-57
2023/11/07 11:11:59;;;;;;;4.00;1.77;;;8.60;99.90;;;;;;5043667;28;20449;-60
2023/11/07 11:14:26;;;;;;;5.60;1.50;;;8.60;99.90;;;;;;5049343;28;20866;-61
2023/11/07 11:16:57;;;;;;;2.47;1.90;;;8.80;99.90;;;;;;5040980;28;20485;-60
2023/11/07 11:19:46;;;;;;;3.53;2.63;;;8.90;99.90;;;;;;5048657;28;20417;-60
2023/11/07 11:22:30;;;;;;;2.70;1.63;;;8.90;99.90;;;;;;5050215;28;20442;-60
2023/11/07 11:25:22;;;;;;;2.43;2.10;;;8.90;99.90;;;;;;5024732;28;20425;-60
2023/11/07 11:27:54;;;;;;;2.43;2.23;;;8.90;99.90;;;;;;5014219;28;20436;-60
2023/11/07 11:30:32;;;;;;;3.60;2.27;;;8.80;99.90;;;;;;5041870;28;20469;-60
2023/11/07 11:33:09;;;;;;;2.97;2.40;;;8.80;99.90;;;;;;5061543;28;20429;-60
2023/11/07 11:35:40;;;;;;;4.10;2.33;;;8.80;99.90;;;;;;5048871;28;20907;-61
2023/11/07 11:38:19;;;;;;;3.10;1.90;;;8.90;99.90;;;;;;5044100;28;20461;-60
2023/11/07 11:40:57;;;;;;;1.60;1.50;;;8.90;99.90;;;;;;5040158;28;21560;-60
2023/11/07 11:43:25;;;;;;;1.90;1.50;;;9.00;99.90;;;;;;5043350;28;20452;-60
2023/11/07 11:45:52;;;;;;;3.93;2.60;;;9.10;99.90;;;;;;5043855;28;20844;-60
2023/11/07 11:48:39;;;;;;;1.70;1.37;;;9.00;99.90;;;;;;5039312;28;20411;-60
2023/11/07 11:51:38;;;;;;;1.80;1.50;;;9.10;99.90;;;;;;5042565;28;20453;-62
2023/11/07 11:54:07;;;;;;;3.50;1.60;;;9.10;99.90;;;;;;5045398;28;20422;-60
2023/11/07 11:56:34;;;;;;;1.77;1.43;;;9.10;99.90;;;;;;5043915;28;20499;-60
2023/11/07 11:59:10;;;;;;;5.20;1.80;;;9.10;99.90;;;;;;5040208;28;20411;-60
2023/11/07 12:01:49;;;;;;;3.77;2.00;;;9.10;99.90;;;;;;5041890;28;20466;-60
2023/11/07 12:04:32;;;;;;;2.33;1.67;;;9.10;99.90;;;;;;5041629;28;20488;-60
2023/11/07 12:07:10;;;;;;;2.30;1.50;;;9.00;99.90;;;;;;5043068;28;20430;-60
2023/11/07 12:09:47;;;;;;;1.20;1.10;;;9.10;99.90;;;;;;5046517;28;20409;-61
2023/11/07 12:12:15;;;;;;;1.77;1.67;;;9.10;99.90;;;;;;5051312;28;20935;-60
2023/11/07 12:15:07;;;;;;;1.50;1.40;;;9.10;99.90;;;;;;5059655;28;20473;-60
2023/11/07 12:17:44;;;;;;;4.27;1.67;;;9.20;99.90;;;;;;5036785;28;20548;-61
2023/11/07 12:20:14;;;;;;;2.70;1.67;;;9.30;99.90;;;;;;5043438;28;20608;-60
2023/11/07 12:22:57;;;;;;;1.67;1.57;;;9.50;99.90;;;;;;5040258;28;20444;-61
2023/11/07 12:25:24;;;;;;;2.80;1.57;;;9.60;99.90;;;;;;5046618;28;20859;-61
2023/11/07 12:28:04;;;;;;;2.60;1.30;;;9.70;99.90;;;;;;5049541;28;20425;-62
2023/11/07 12:30:30;;;;;;;1.80;1.70;;;9.70;99.90;;;;;;5046278;28;20494;-61
2023/11/07 12:33:08;;;;;;;1.70;1.60;;;9.70;99.90;;;;;;5047269;28;21499;-60
2023/11/07 12:35:35;;;;;;;1.90;1.50;;;9.70;99.90;;;;;;5046552;28;20413;-60
2023/11/07 12:38:09;;;;;;;1.00;1.00;;;9.70;99.90;;;;;;5042205;28;20466;-61
2023/11/07 12:40:36;;;;;;;2.40;1.00;;;9.70;99.30;;;;;;5046088;28;20653;-60
2023/11/07 12:43:04;;;;;;;1.53;1.20;;;9.60;99.40;;;;;;5044200;28;20471;-59
2023/11/07 12:45:31;;;;;;;1.37;1.27;;;9.50;96.40;;;;;;5052637;28;21982;-60
2023/11/07 12:48:03;;;;;;;1.10;1.10;;;9.50;98.30;;;;;;5054462;28;20467;-60
2023/11/07 12:50:34;;;;;;;3.17;1.63;;;9.50;99.90;;;;;;5041744;28;20516;-60
2023/11/07 12:53:05;;;;;;;3.33;1.77;;;9.60;99.90;;;;;;5050468;28;20974;-61
2023/11/07 12:55:35;;;;;;;1.47;1.17;;;9.60;99.90;;;;;;5047788;28;20516;-61
2023/11/07 12:58:00;;;;;;;1.27;1.10;;;9.70;99.90;;;;;;5045737;28;21026;-60
2023/11/07 13:00:30;;;;;;;1.83;1.00;;;9.70;97.80;;;;;;5050753;28;20604;-60